sensor_id;sensor_type;location;lat;lon;timestamp;temperature;humidity
7000;DHT22;3540;53.242;10.408;2022-09-21T00:00:51;5.90;99.90
7000;DHT22;3540;53.242;10.408;2022-09-21T00:03:17;5.80;99.90
7000;DHT22;3540;53.242;10.408;2022-09-21T00:05:44;5.80;99.90
7000;DHT22;3540;53.242;10.408;2022-09-21T00:08:11;5.70;99.90
7000;DHT22;3540;53.242;10.408;2022-09-21T00:10:37;5.70;99.90
7000;DHT22;3540;53.242;10.408;2022-09-21T00:13:04;5.70;99.90
7000;DHT22;3540;53.242;10.408;2022-09-21T00:15:30;5.70;99.90
7000;DHT22;3540;53.242;10.408;2022-09-21T00:17:58;5.60;99.90
7000;DHT22;3540;53.242;10.408;2022-09-21T00:20:24;5.60;99.90
7000;DHT22;3540;53.242;10.408;2022-09-21T00:22:51;5.50;99.90
7000;DHT22;3540;53.242;10.408;2022-09-21T00:25:18;5.60;99.90
7000;DHT22;3540;53.242;10.408;2022-09-21T00:27:44;5.50;99.90
7000;DHT22;3540;53.242;10.408;2022-09-21T00:30:12;5.50;99.90
7000;DHT22;3540;53.242;10.408;2022-09-21T00:32:38;5.60;99.90
7000;DHT22;3540;53.242;10.408;2022-09-21T00:35:07;5.60;99.90
7000;DHT22;3540;53.242;10.408;2022-09-21T00:37:34;5.50;99.90
7000;DHT22;3540;53.242;10.408;2022-09-21T00:40:00;5.40;99.90
7000;DHT22;3540;53.242;10.408;2022-09-21T00:42:29;5.30;99.90
7000;DHT22;3540;53.242;10.408;2022-09-21T00:44:54;5.40;99.90
7000;DHT22;3540;53.242;10.408;2022-09-21T00:47:41;5.40;99.90
7000;DHT22;3540;53.242;10.408;2022-09-21T00:50:16;5.40;99.90
7000;DHT22;3540;53.242;10.408;2022-09-21T00:52:45;5.30;99.90
7000;DHT22;3540;53.242;10.408;2022-09-21T00:55:19;5.30;99.90
7000;DHT22;3540;53.242;10.408;2022-09-21T00:57:48;5.30;99.90
7000;DHT22;3540;53.242;10.408;2022-09-21T01:00:16;5.30;99.90
7000;DHT22;3540;53.242;10.408;2022-09-21T01:02:42;5.20;99.90
7000;DHT22;3540;53.242;10.408;2022-09-21T01:05:09;5.20;99.90
7000;DHT22;3540;53.242;10.408;2022-09-21T01:07:37;5.20;99.90
7000;DHT22;3540;53.242;10.408;2022-09-21T01:10:10;5.20;99.90
7000;DHT22;3540;53.242;10.408;2022-09-21T01:12:59;5.20;99.90
7000;DHT22;3540;53.242;10.408;2022-09-21T01:16:02;5.20;99.90
7000;DHT22;3540;53.242;10.408;2022-09-21T01:18:44;5.20;99.90
7000;DHT22;3540;53.242;10.408;2022-09-21T01:31:24;5.20;99.90
7000;DHT22;3540;53.242;10.408;2022-09-21T01:33:56;5.20;99.90
7000;DHT22;3540;53.242;10.408;2022-09-21T01:36:26;5.10;99.90
7000;DHT22;3540;53.242;10.408;2022-09-21T01:39:01;5.10;99.90
7000;DHT22;3540;53.242;10.408;2022-09-21T01:41:28;5.00;99.90
7000;DHT22;3540;53.242;10.408;2022-09-21T01:43:59;4.90;99.90
7000;DHT22;3540;53.242;10.408;2022-09-21T01:46:29;5.00;99.90
7000;DHT22;3540;53.242;10.408;2022-09-21T01:49:04;5.00;99.90
7000;DHT22;3540;53.242;10.408;2022-09-21T01:51:32;4.90;99.90
7000;DHT22;3540;53.242;10.408;2022-09-21T01:54:08;5.00;99.90
7000;DHT22;3540;53.242;10.408;2022-09-21T01:56:50;4.90;99.90
7000;DHT22;3540;53.242;10.408;2022-09-21T01:59:25;4.90;99.90
7000;DHT22;3540;53.242;10.408;2022-09-21T02:01:57;4.90;99.90
7000;DHT22;3540;53.242;10.408;2022-09-21T02:04:24;4.90;99.90
7000;DHT22;3540;53.242;10.408;2022-09-21T02:06:51;4.80;99.90
7000;DHT22;3540;53.242;10.408;2022-09-21T02:09:18;4.80;99.90
7000;DHT22;3540;53.242;10.408;2022-09-21T02:11:44;4.70;99.90
7000;DHT22;3540;53.242;10.408;2022-09-21T02:14:12;4.70;99.90
7000;DHT22;3540;53.242;10.408;2022-09-21T02:19:54;4.70;99.90
7000;DHT22;3540;53.242;10.408;2022-09-21T02:23:06;4.70;99.90
7000;DHT22;3540;53.242;10.408;2022-09-21T02:25:47;4.70;99.90
7000;DHT22;3540;53.242;10.408;2022-09-21T02:28:42;4.80;99.90
7000;DHT22;3540;53.242;10.408;2022-09-21T02:31:25;4.80;99.90
7000;DHT22;3540;53.242;10.408;2022-09-21T02:37:13;4.80;99.90
7000;DHT22;3540;53.242;10.408;2022-09-21T02:42:09;4.70;99.90
7000;DHT22;3540;53.242;10.408;2022-09-21T02:44:50;4.60;99.90
7000;DHT22;3540;53.242;10.408;2022-09-21T02:47:25;4.60;99.90
7000;DHT22;3540;53.242;10.408;2022-09-21T02:50:00;4.60;99.90
7000;DHT22;3540;53.242;10.408;2022-09-21T02:52:29;4.60;99.90
7000;DHT22;3540;53.242;10.408;2022-09-21T02:54:56;4.60;99.90
7000;DHT22;3540;53.242;10.408;2022-09-21T02:57:23;4.50;99.90
7000;DHT22;3540;53.242;10.408;2022-09-21T02:59:50;4.40;99.90
7000;DHT22;3540;53.242;10.408;2022-09-21T03:02:16;4.40;99.90
7000;DHT22;3540;53.242;10.408;2022-09-21T03:04:45;4.30;99.90
7000;DHT22;3540;53.242;10.408;2022-09-21T03:07:17;4.30;99.90
7000;DHT22;3540;53.242;10.408;2022-09-21T03:09:43;4.30;99.90
7000;DHT22;3540;53.242;10.408;2022-09-21T03:12:09;4.30;99.90
7000;DHT22;3540;53.242;10.408;2022-09-21T03:14:34;4.30;99.90
7000;DHT22;3540;53.242;10.408;2022-09-21T03:17:00;4.30;99.90
7000;DHT22;3540;53.242;10.408;2022-09-21T03:19:26;4.30;99.90
7000;DHT22;3540;53.242;10.408;2022-09-21T03:21:52;4.30;99.90
7000;DHT22;3540;53.242;10.408;2022-09-21T03:24:19;4.30;99.90
7000;DHT22;3540;53.242;10.408;2022-09-21T03:27:05;4.30;99.90
7000;DHT22;3540;53.242;10.408;2022-09-21T03:29:31;4.30;99.90
7000;DHT22;3540;53.242;10.408;2022-09-21T03:31:57;4.40;99.90
7000;DHT22;3540;53.242;10.408;2022-09-21T03:34:23;4.30;99.90
7000;DHT22;3540;53.242;10.408;2022-09-21T03:36:48;4.20;99.90
7000;DHT22;3540;53.242;10.408;2022-09-21T03:39:14;4.20;99.90
7000;DHT22;3540;53.242;10.408;2022-09-21T03:41:39;4.20;99.90
7000;DHT22;3540;53.242;10.408;2022-09-21T03:44:05;4.20;99.90
7000;DHT22;3540;53.242;10.408;2022-09-21T03:46:31;4.20;99.90
7000;DHT22;3540;53.242;10.408;2022-09-21T03:49:00;4.10;99.90
7000;DHT22;3540;53.242;10.408;2022-09-21T03:51:27;4.10;99.90
7000;DHT22;3540;53.242;10.408;2022-09-21T03:53:56;4.00;99.90
7000;DHT22;3540;53.242;10.408;2022-09-21T03:56:22;4.10;99.90
7000;DHT22;3540;53.242;10.408;2022-09-21T03:58:48;4.00;99.90
7000;DHT22;3540;53.242;10.408;2022-09-21T04:01:14;4.00;99.90
7000;DHT22;3540;53.242;10.408;2022-09-21T04:03:39;4.00;99.90
7000;DHT22;3540;53.242;10.408;2022-09-21T04:06:11;4.10;99.90
7000;DHT22;3540;53.242;10.408;2022-09-21T04:08:37;4.10;99.90
7000;DHT22;3540;53.242;10.408;2022-09-21T04:11:10;4.10;99.90
7000;DHT22;3540;53.242;10.408;2022-09-21T04:13:36;4.10;99.90
7000;DHT22;3540;53.242;10.408;2022-09-21T04:16:02;4.10;99.90
7000;DHT22;3540;53.242;10.408;2022-09-21T04:18:27;4.10;99.90
7000;DHT22;3540;53.242;10.408;2022-09-21T04:20:53;4.00;99.90
7000;DHT22;3540;53.242;10.408;2022-09-21T04:23:18;4.00;99.90
7000;DHT22;3540;53.242;10.408;2022-09-21T04:25:47;3.90;99.90
7000;DHT22;3540;53.242;10.408;2022-09-21T04:28:13;3.90;99.90
7000;DHT22;3540;53.242;10.408;2022-09-21T04:30:39;3.90;99.90
7000;DHT22;3540;53.242;10.408;2022-09-21T04:33:05;3.90;99.90
7000;DHT22;3540;53.242;10.408;2022-09-21T04:35:30;3.90;99.90
7000;DHT22;3540;53.242;10.408;2022-09-21T04:37:56;3.90;99.90
7000;DHT22;3540;53.242;10.408;2022-09-21T04:40:21;3.90;99.90
7000;DHT22;3540;53.242;10.408;2022-09-21T04:42:54;3.90;99.90
7000;DHT22;3540;53.242;10.408;2022-09-21T04:45:21;3.90;99.90
7000;DHT22;3540;53.242;10.408;2022-09-21T04:47:47;3.90;99.90
7000;DHT22;3540;53.242;10.408;2022-09-21T04:50:13;3.90;99.90
7000;DHT22;3540;53.242;10.408;2022-09-21T04:52:39;3.90;99.90
7000;DHT22;3540;53.242;10.408;2022-09-21T04:55:06;3.80;99.90
7000;DHT22;3540;53.242;10.408;2022-09-21T04:57:32;3.90;99.90
7000;DHT22;3540;53.242;10.408;2022-09-21T04:59:58;3.90;99.90
7000;DHT22;3540;53.242;10.408;2022-09-21T05:02:23;3.90;99.90
7000;DHT22;3540;53.242;10.408;2022-09-21T05:04:49;3.80;99.90
7000;DHT22;3540;53.242;10.408;2022-09-21T05:07:15;3.90;99.90
7000;DHT22;3540;53.242;10.408;2022-09-21T05:09:41;3.80;99.90
7000;DHT22;3540;53.242;10.408;2022-09-21T05:12:26;3.80;99.90
7000;DHT22;3540;53.242;10.408;2022-09-21T05:14:51;3.80;99.90
7000;DHT22;3540;53.242;10.408;2022-09-21T05:17:17;3.80;99.90
7000;DHT22;3540;53.242;10.408;2022-09-21T05:19:46;3.80;99.90
7000;DHT22;3540;53.242;10.408;2022-09-21T05:22:12;3.80;99.90
7000;DHT22;3540;53.242;10.408;2022-09-21T05:24:38;3.70;99.90
7000;DHT22;3540;53.242;10.408;2022-09-21T05:27:03;3.80;99.90
7000;DHT22;3540;53.242;10.408;2022-09-21T05:29:29;3.90;99.90
7000;DHT22;3540;53.242;10.408;2022-09-21T05:35:07;3.80;99.90
7000;DHT22;3540;53.242;10.408;2022-09-21T05:37:38;3.90;99.90
7000;DHT22;3540;53.242;10.408;2022-09-21T05:40:06;3.90;99.90
7000;DHT22;3540;53.242;10.408;2022-09-21T05:42:32;3.90;99.90
7000;DHT22;3540;53.242;10.408;2022-09-21T05:44:58;4.00;99.90
7000;DHT22;3540;53.242;10.408;2022-09-21T05:47:40;4.10;99.90
7000;DHT22;3540;53.242;10.408;2022-09-21T05:58:23;4.20;99.90
7000;DHT22;3540;53.242;10.408;2022-09-21T06:01:02;4.30;99.90
7000;DHT22;3540;53.242;10.408;2022-09-21T06:03:29;4.40;99.90
7000;DHT22;3540;53.242;10.408;2022-09-21T06:05:56;4.40;99.90
7000;DHT22;3540;53.242;10.408;2022-09-21T06:08:22;4.50;99.90
7000;DHT22;3540;53.242;10.408;2022-09-21T06:10:48;4.50;99.90
7000;DHT22;3540;53.242;10.408;2022-09-21T06:13:14;4.60;99.90
7000;DHT22;3540;53.242;10.408;2022-09-21T06:15:40;4.60;99.90
7000;DHT22;3540;53.242;10.408;2022-09-21T06:18:07;4.70;99.90
7000;DHT22;3540;53.242;10.408;2022-09-21T06:20:33;4.80;99.90
7000;DHT22;3540;53.242;10.408;2022-09-21T06:25:27;5.00;99.90
7000;DHT22;3540;53.242;10.408;2022-09-21T06:27:52;5.10;99.90
7000;DHT22;3540;53.242;10.408;2022-09-21T06:30:18;5.20;99.90
7000;DHT22;3540;53.242;10.408;2022-09-21T06:32:43;5.30;99.90
7000;DHT22;3540;53.242;10.408;2022-09-21T06:35:09;5.40;99.90
7000;DHT22;3540;53.242;10.408;2022-09-21T06:37:34;5.50;99.90
7000;DHT22;3540;53.242;10.408;2022-09-21T06:40:02;5.60;99.90
7000;DHT22;3540;53.242;10.408;2022-09-21T06:42:28;5.80;99.90
7000;DHT22;3540;53.242;10.408;2022-09-21T06:44:54;5.90;99.90
7000;DHT22;3540;53.242;10.408;2022-09-21T06:47:20;6.00;99.90
7000;DHT22;3540;53.242;10.408;2022-09-21T06:49:45;6.10;99.90
7000;DHT22;3540;53.242;10.408;2022-09-21T06:52:11;6.20;99.90
7000;DHT22;3540;53.242;10.408;2022-09-21T06:54:37;6.40;99.90
7000;DHT22;3540;53.242;10.408;2022-09-21T06:57:04;6.50;99.90
7000;DHT22;3540;53.242;10.408;2022-09-21T06:59:30;6.70;99.90
7000;DHT22;3540;53.242;10.408;2022-09-21T07:01:55;6.90;99.90
7000;DHT22;3540;53.242;10.408;2022-09-21T07:04:22;7.10;99.90
7000;DHT22;3540;53.242;10.408;2022-09-21T07:06:52;7.20;99.90
7000;DHT22;3540;53.242;10.408;2022-09-21T07:09:18;7.40;99.90
7000;DHT22;3540;53.242;10.408;2022-09-21T07:11:44;7.50;99.90
7000;DHT22;3540;53.242;10.408;2022-09-21T07:14:09;7.70;99.90
7000;DHT22;3540;53.242;10.408;2022-09-21T07:16:35;7.90;99.90
7000;DHT22;3540;53.242;10.408;2022-09-21T07:19:01;8.00;99.90
7000;DHT22;3540;53.242;10.408;2022-09-21T07:21:28;8.20;99.90
7000;DHT22;3540;53.242;10.408;2022-09-21T07:23:54;8.40;99.90
7000;DHT22;3540;53.242;10.408;2022-09-21T07:26:20;8.50;99.90
7000;DHT22;3540;53.242;10.408;2022-09-21T07:28:46;8.70;99.90
7000;DHT22;3540;53.242;10.408;2022-09-21T07:31:14;8.80;99.90
7000;DHT22;3540;53.242;10.408;2022-09-21T07:33:41;9.00;99.90
7000;DHT22;3540;53.242;10.408;2022-09-21T07:36:07;9.20;99.90
7000;DHT22;3540;53.242;10.408;2022-09-21T07:38:41;9.30;99.90
7000;DHT22;3540;53.242;10.408;2022-09-21T07:41:09;9.40;99.90
7000;DHT22;3540;53.242;10.408;2022-09-21T07:43:35;9.60;99.90
7000;DHT22;3540;53.242;10.408;2022-09-21T07:46:04;9.80;99.90
7000;DHT22;3540;53.242;10.408;2022-09-21T07:48:29;10.00;99.90
7000;DHT22;3540;53.242;10.408;2022-09-21T07:51:01;10.20;99.90
7000;DHT22;3540;53.242;10.408;2022-09-21T07:53:29;10.30;99.90
7000;DHT22;3540;53.242;10.408;2022-09-21T07:56:03;10.50;99.90
7000;DHT22;3540;53.242;10.408;2022-09-21T07:58:30;10.70;99.90
7000;DHT22;3540;53.242;10.408;2022-09-21T08:01:14;10.80;99.90
7000;DHT22;3540;53.242;10.408;2022-09-21T08:03:39;10.90;99.90
7000;DHT22;3540;53.242;10.408;2022-09-21T08:06:06;11.10;99.90
7000;DHT22;3540;53.242;10.408;2022-09-21T08:08:31;11.30;99.90
7000;DHT22;3540;53.242;10.408;2022-09-21T08:11:04;11.50;99.90
7000;DHT22;3540;53.242;10.408;2022-09-21T08:13:30;11.70;99.90
7000;DHT22;3540;53.242;10.408;2022-09-21T08:16:00;11.90;99.90
7000;DHT22;3540;53.242;10.408;2022-09-21T08:18:26;12.10;99.90
7000;DHT22;3540;53.242;10.408;2022-09-21T08:20:53;12.20;99.90
7000;DHT22;3540;53.242;10.408;2022-09-21T08:23:20;12.30;99.90
7000;DHT22;3540;53.242;10.408;2022-09-21T08:25:45;12.50;99.90
7000;DHT22;3540;53.242;10.408;2022-09-21T08:28:11;12.50;99.90
7000;DHT22;3540;53.242;10.408;2022-09-21T08:30:36;12.70;99.90
7000;DHT22;3540;53.242;10.408;2022-09-21T08:33:02;12.90;99.90
7000;DHT22;3540;53.242;10.408;2022-09-21T08:35:28;13.00;99.90
7000;DHT22;3540;53.242;10.408;2022-09-21T08:37:54;13.10;99.90
7000;DHT22;3540;53.242;10.408;2022-09-21T08:40:19;13.30;99.90
7000;DHT22;3540;53.242;10.408;2022-09-21T08:45:38;13.50;99.90
7000;DHT22;3540;53.242;10.408;2022-09-21T08:48:09;13.70;99.90
7000;DHT22;3540;53.242;10.408;2022-09-21T08:50:43;13.80;99.90
7000;DHT22;3540;53.242;10.408;2022-09-21T08:53:23;13.90;99.90
7000;DHT22;3540;53.242;10.408;2022-09-21T08:55:50;14.00;99.90
7000;DHT22;3540;53.242;10.408;2022-09-21T08:58:21;14.10;99.90
7000;DHT22;3540;53.242;10.408;2022-09-21T09:00:51;14.20;99.90
7000;DHT22;3540;53.242;10.408;2022-09-21T09:03:28;14.30;99.90
7000;DHT22;3540;53.242;10.408;2022-09-21T09:06:30;14.40;99.90
7000;DHT22;3540;53.242;10.408;2022-09-21T09:20:30;15.00;99.90
7000;DHT22;3540;53.242;10.408;2022-09-21T09:23:24;14.70;99.90
7000;DHT22;3540;53.242;10.408;2022-09-21T09:25:55;14.80;99.90
7000;DHT22;3540;53.242;10.408;2022-09-21T09:28:33;14.90;99.90
7000;DHT22;3540;53.242;10.408;2022-09-21T09:31:21;15.10;99.90
7000;DHT22;3540;53.242;10.408;2022-09-21T09:36:38;15.00;99.90
7000;DHT22;3540;53.242;10.408;2022-09-21T09:39:11;15.00;99.90
7000;DHT22;3540;53.242;10.408;2022-09-21T09:45:02;14.60;99.90
7000;DHT22;3540;53.242;10.408;2022-09-21T09:48:11;14.50;99.90
7000;DHT22;3540;53.242;10.408;2022-09-21T09:50:41;14.40;99.90
7000;DHT22;3540;53.242;10.408;2022-09-21T09:53:21;14.30;99.90
7000;DHT22;3540;53.242;10.408;2022-09-21T09:55:53;14.50;99.90
7000;DHT22;3540;53.242;10.408;2022-09-21T10:01:05;15.20;99.90
7000;DHT22;3540;53.242;10.408;2022-09-21T10:03:31;15.50;99.90
7000;DHT22;3540;53.242;10.408;2022-09-21T10:05:56;15.50;99.90
7000;DHT22;3540;53.242;10.408;2022-09-21T10:08:38;15.50;99.90
7000;DHT22;3540;53.242;10.408;2022-09-21T10:11:04;15.60;99.90
7000;DHT22;3540;53.242;10.408;2022-09-21T10:13:30;15.80;99.90
7000;DHT22;3540;53.242;10.408;2022-09-21T10:16:03;15.50;99.90
7000;DHT22;3540;53.242;10.408;2022-09-21T10:21:22;15.30;99.90
7000;DHT22;3540;53.242;10.408;2022-09-21T10:24:21;15.10;99.90
7000;DHT22;3540;53.242;10.408;2022-09-21T10:26:47;15.00;99.90
7000;DHT22;3540;53.242;10.408;2022-09-21T10:34:32;15.70;99.90
7000;DHT22;3540;53.242;10.408;2022-09-21T10:37:19;15.90;99.90
7000;DHT22;3540;53.242;10.408;2022-09-21T10:39:47;16.20;99.90
7000;DHT22;3540;53.242;10.408;2022-09-21T10:42:15;16.50;99.90
7000;DHT22;3540;53.242;10.408;2022-09-21T10:45:03;16.50;99.90
7000;DHT22;3540;53.242;10.408;2022-09-21T10:47:36;16.70;99.90
7000;DHT22;3540;53.242;10.408;2022-09-21T10:50:25;16.60;99.90
7000;DHT22;3540;53.242;10.408;2022-09-21T10:52:57;16.70;99.90
7000;DHT22;3540;53.242;10.408;2022-09-21T10:55:24;16.90;99.90
7000;DHT22;3540;53.242;10.408;2022-09-21T10:57:51;17.00;99.90
7000;DHT22;3540;53.242;10.408;2022-09-21T11:02:45;17.10;99.90
7000;DHT22;3540;53.242;10.408;2022-09-21T11:07:55;16.80;99.90
7000;DHT22;3540;53.242;10.408;2022-09-21T11:10:39;17.00;99.90
7000;DHT22;3540;53.242;10.408;2022-09-21T11:13:28;16.30;99.90
7000;DHT22;3540;53.242;10.408;2022-09-21T11:24:43;16.30;99.90
7000;DHT22;3540;53.242;10.408;2022-09-21T11:29:59;16.50;99.90
7000;DHT22;3540;53.242;10.408;2022-09-21T11:44:02;17.10;99.90
7000;DHT22;3540;53.242;10.408;2022-09-21T11:57:21;17.40;99.90
7000;DHT22;3540;53.242;10.408;2022-09-21T12:11:26;17.40;99.90
7000;DHT22;3540;53.242;10.408;2022-09-21T12:16:54;17.40;99.90
7000;DHT22;3540;53.242;10.408;2022-09-21T12:21:57;17.20;99.90
7000;DHT22;3540;53.242;10.408;2022-09-21T12:24:54;17.00;99.90
7000;DHT22;3540;53.242;10.408;2022-09-21T12:27:36;17.10;99.90
7000;DHT22;3540;53.242;10.408;2022-09-21T12:30:13;17.50;99.90
7000;DHT22;3540;53.242;10.408;2022-09-21T12:32:58;17.60;99.90
7000;DHT22;3540;53.242;10.408;2022-09-21T12:35:42;17.70;99.90
7000;DHT22;3540;53.242;10.408;2022-09-21T12:43:35;18.00;99.90
7000;DHT22;3540;53.242;10.408;2022-09-21T12:48:41;17.60;99.90
7000;DHT22;3540;53.242;10.408;2022-09-21T12:51:11;17.50;99.90
7000;DHT22;3540;53.242;10.408;2022-09-21T12:53:42;17.80;99.90
7000;DHT22;3540;53.242;10.408;2022-09-21T12:56:11;18.10;99.90
7000;DHT22;3540;53.242;10.408;2022-09-21T13:01:40;17.70;99.90
7000;DHT22;3540;53.242;10.408;2022-09-21T13:09:43;17.20;99.90
7000;DHT22;3540;53.242;10.408;2022-09-21T13:12:20;17.70;99.90
7000;DHT22;3540;53.242;10.408;2022-09-21T13:14:51;17.80;99.90
7000;DHT22;3540;53.242;10.408;2022-09-21T13:17:28;17.80;99.90
7000;DHT22;3540;53.242;10.408;2022-09-21T13:20:18;17.80;99.90
7000;DHT22;3540;53.242;10.408;2022-09-21T13:22:45;18.10;99.90
7000;DHT22;3540;53.242;10.408;2022-09-21T13:25:22;18.20;99.90
7000;DHT22;3540;53.242;10.408;2022-09-21T13:33:31;18.30;99.90
7000;DHT22;3540;53.242;10.408;2022-09-21T13:43:59;18.50;99.90
7000;DHT22;3540;53.242;10.408;2022-09-21T13:54:23;18.20;99.90
7000;DHT22;3540;53.242;10.408;2022-09-21T13:57:03;18.30;99.90
7000;DHT22;3540;53.242;10.408;2022-09-21T13:59:31;18.20;99.90
7000;DHT22;3540;53.242;10.408;2022-09-21T14:01:57;18.40;99.90
7000;DHT22;3540;53.242;10.408;2022-09-21T14:04:24;18.20;99.90
7000;DHT22;3540;53.242;10.408;2022-09-21T14:06:51;17.90;99.90
7000;DHT22;3540;53.242;10.408;2022-09-21T14:09:33;17.70;99.90
7000;DHT22;3540;53.242;10.408;2022-09-21T14:12:07;17.50;99.90
7000;DHT22;3540;53.242;10.408;2022-09-21T14:14:36;17.70;99.90
7000;DHT22;3540;53.242;10.408;2022-09-21T14:17:40;18.10;99.90
7000;DHT22;3540;53.242;10.408;2022-09-21T14:20:29;18.50;99.90
7000;DHT22;3540;53.242;10.408;2022-09-21T14:25:55;18.20;99.90
7000;DHT22;3540;53.242;10.408;2022-09-21T14:28:38;18.10;99.90
7000;DHT22;3540;53.242;10.408;2022-09-21T14:31:13;18.20;99.90
7000;DHT22;3540;53.242;10.408;2022-09-21T14:33:49;18.20;99.90
7000;DHT22;3540;53.242;10.408;2022-09-21T14:36:42;18.20;99.90
7000;DHT22;3540;53.242;10.408;2022-09-21T14:39:15;18.20;99.90
7000;DHT22;3540;53.242;10.408;2022-09-21T14:41:43;18.20;99.90
7000;DHT22;3540;53.242;10.408;2022-09-21T14:44:21;18.40;99.90
7000;DHT22;3540;53.242;10.408;2022-09-21T14:47:08;18.50;99.90
7000;DHT22;3540;53.242;10.408;2022-09-21T14:49:58;18.30;99.90
7000;DHT22;3540;53.242;10.408;2022-09-21T15:01:37;17.90;99.90
7000;DHT22;3540;53.242;10.408;2022-09-21T15:07:11;17.90;99.90
7000;DHT22;3540;53.242;10.408;2022-09-21T15:18:46;17.60;99.90
7000;DHT22;3540;53.242;10.408;2022-09-21T15:21:27;17.40;99.90
7000;DHT22;3540;53.242;10.408;2022-09-21T15:23:54;17.40;99.90
7000;DHT22;3540;53.242;10.408;2022-09-21T15:26:25;17.70;99.90
7000;DHT22;3540;53.242;10.408;2022-09-21T15:28:56;17.90;99.90
7000;DHT22;3540;53.242;10.408;2022-09-21T15:31:22;18.00;99.90
7000;DHT22;3540;53.242;10.408;2022-09-21T15:33:49;18.10;99.90
7000;DHT22;3540;53.242;10.408;2022-09-21T15:36:24;18.00;99.90
7000;DHT22;3540;53.242;10.408;2022-09-21T15:38:51;18.10;99.90
7000;DHT22;3540;53.242;10.408;2022-09-21T15:41:40;18.10;99.90
7000;DHT22;3540;53.242;10.408;2022-09-21T15:44:32;17.60;99.90
7000;DHT22;3540;53.242;10.408;2022-09-21T15:46:59;17.50;99.90
7000;DHT22;3540;53.242;10.408;2022-09-21T15:49:28;17.60;99.90
7000;DHT22;3540;53.242;10.408;2022-09-21T15:52:09;17.20;99.90
7000;DHT22;3540;53.242;10.408;2022-09-21T15:54:40;16.90;99.90
7000;DHT22;3540;53.242;10.408;2022-09-21T15:57:35;16.80;99.90
7000;DHT22;3540;53.242;10.408;2022-09-21T16:00:06;16.80;99.90
7000;DHT22;3540;53.242;10.408;2022-09-21T16:02:48;16.70;99.90
7000;DHT22;3540;53.242;10.408;2022-09-21T16:05:15;16.60;99.90
7000;DHT22;3540;53.242;10.408;2022-09-21T16:07:44;16.50;99.90
7000;DHT22;3540;53.242;10.408;2022-09-21T16:16:12;16.50;99.90
7000;DHT22;3540;53.242;10.408;2022-09-21T16:18:41;16.40;99.90
7000;DHT22;3540;53.242;10.408;2022-09-21T16:21:19;16.40;99.90
7000;DHT22;3540;53.242;10.408;2022-09-21T16:23:48;16.30;99.90
7000;DHT22;3540;53.242;10.408;2022-09-21T16:26:31;16.20;99.90
7000;DHT22;3540;53.242;10.408;2022-09-21T16:29:25;16.00;99.90
7000;DHT22;3540;53.242;10.408;2022-09-21T16:34:46;15.80;99.90
7000;DHT22;3540;53.242;10.408;2022-09-21T16:39:57;15.70;99.90
7000;DHT22;3540;53.242;10.408;2022-09-21T16:42:25;15.70;99.90
7000;DHT22;3540;53.242;10.408;2022-09-21T16:44:53;15.60;99.90
7000;DHT22;3540;53.242;10.408;2022-09-21T16:47:25;15.60;99.90
7000;DHT22;3540;53.242;10.408;2022-09-21T16:49:52;15.50;99.90
7000;DHT22;3540;53.242;10.408;2022-09-21T16:52:20;15.50;99.90
7000;DHT22;3540;53.242;10.408;2022-09-21T16:54:46;15.40;99.90
7000;DHT22;3540;53.242;10.408;2022-09-21T16:57:13;15.30;99.90
7000;DHT22;3540;53.242;10.408;2022-09-21T16:59:39;15.20;99.90
7000;DHT22;3540;53.242;10.408;2022-09-21T17:02:05;15.10;99.90
7000;DHT22;3540;53.242;10.408;2022-09-21T17:04:33;15.00;99.90
7000;DHT22;3540;53.242;10.408;2022-09-21T17:06:59;14.90;99.90
7000;DHT22;3540;53.242;10.408;2022-09-21T17:09:30;14.70;99.90
7000;DHT22;3540;53.242;10.408;2022-09-21T17:12:00;14.60;99.90
7000;DHT22;3540;53.242;10.408;2022-09-21T17:14:28;14.50;99.90
7000;DHT22;3540;53.242;10.408;2022-09-21T17:17:01;14.30;99.90
7000;DHT22;3540;53.242;10.408;2022-09-21T17:19:29;14.20;99.90
7000;DHT22;3540;53.242;10.408;2022-09-21T17:21:55;14.00;99.90
7000;DHT22;3540;53.242;10.408;2022-09-21T17:24:21;13.90;99.90
7000;DHT22;3540;53.242;10.408;2022-09-21T17:26:47;13.70;99.90
7000;DHT22;3540;53.242;10.408;2022-09-21T17:29:20;13.60;99.90
7000;DHT22;3540;53.242;10.408;2022-09-21T17:31:48;13.50;99.90
7000;DHT22;3540;53.242;10.408;2022-09-21T17:34:18;13.30;99.90
7000;DHT22;3540;53.242;10.408;2022-09-21T17:36:45;13.20;99.90
7000;DHT22;3540;53.242;10.408;2022-09-21T17:39:11;13.10;99.90
7000;DHT22;3540;53.242;10.408;2022-09-21T17:41:58;12.90;99.90
7000;DHT22;3540;53.242;10.408;2022-09-21T17:47:18;12.60;99.90
7000;DHT22;3540;53.242;10.408;2022-09-21T17:49:45;12.50;99.90
7000;DHT22;3540;53.242;10.408;2022-09-21T17:52:17;12.40;99.90
7000;DHT22;3540;53.242;10.408;2022-09-21T17:55:04;12.30;99.90
7000;DHT22;3540;53.242;10.408;2022-09-21T18:00:26;12.10;99.90
7000;DHT22;3540;53.242;10.408;2022-09-21T18:02:54;12.00;99.90
7000;DHT22;3540;53.242;10.408;2022-09-21T18:05:22;11.90;99.90
7000;DHT22;3540;53.242;10.408;2022-09-21T18:07:49;11.90;99.90
7000;DHT22;3540;53.242;10.408;2022-09-21T18:10:16;11.80;99.90
7000;DHT22;3540;53.242;10.408;2022-09-21T18:18:02;11.50;99.90
7000;DHT22;3540;53.242;10.408;2022-09-21T18:20:56;11.50;99.90
7000;DHT22;3540;53.242;10.408;2022-09-21T18:25:57;11.30;99.90
7000;DHT22;3540;53.242;10.408;2022-09-21T18:28:42;11.20;99.90
7000;DHT22;3540;53.242;10.408;2022-09-21T18:42:27;10.80;99.90
7000;DHT22;3540;53.242;10.408;2022-09-21T18:45:05;10.70;99.90
7000;DHT22;3540;53.242;10.408;2022-09-21T18:47:43;10.70;99.90
7000;DHT22;3540;53.242;10.408;2022-09-21T18:50:32;10.60;99.90
7000;DHT22;3540;53.242;10.408;2022-09-21T18:53:25;10.60;99.90
7000;DHT22;3540;53.242;10.408;2022-09-21T18:55:54;10.50;99.90
7000;DHT22;3540;53.242;10.408;2022-09-21T18:58:21;10.40;99.90
7000;DHT22;3540;53.242;10.408;2022-09-21T19:00:47;10.40;99.90
7000;DHT22;3540;53.242;10.408;2022-09-21T19:03:14;10.30;99.90
7000;DHT22;3540;53.242;10.408;2022-09-21T19:06:04;10.30;99.90
7000;DHT22;3540;53.242;10.408;2022-09-21T19:08:39;10.20;99.90
7000;DHT22;3540;53.242;10.408;2022-09-21T19:14:06;10.10;99.90
7000;DHT22;3540;53.242;10.408;2022-09-21T19:21:44;10.00;99.90
7000;DHT22;3540;53.242;10.408;2022-09-21T19:29:55;9.90;99.90
7000;DHT22;3540;53.242;10.408;2022-09-21T19:32:38;9.90;99.90
7000;DHT22;3540;53.242;10.408;2022-09-21T19:37:49;10.00;99.90
7000;DHT22;3540;53.242;10.408;2022-09-21T19:40:16;10.00;99.90
7000;DHT22;3540;53.242;10.408;2022-09-21T19:48:09;9.90;99.90
7000;DHT22;3540;53.242;10.408;2022-09-21T19:50:50;9.80;99.90
7000;DHT22;3540;53.242;10.408;2022-09-21T19:53:20;9.70;99.90
7000;DHT22;3540;53.242;10.408;2022-09-21T19:56:09;9.70;99.90
7000;DHT22;3540;53.242;10.408;2022-09-21T19:58:54;9.60;99.90
7000;DHT22;3540;53.242;10.408;2022-09-21T20:01:40;9.70;99.90
7000;DHT22;3540;53.242;10.408;2022-09-21T20:04:13;9.70;99.90
7000;DHT22;3540;53.242;10.408;2022-09-21T20:06:44;9.60;99.90
7000;DHT22;3540;53.242;10.408;2022-09-21T20:09:28;9.50;99.90
7000;DHT22;3540;53.242;10.408;2022-09-21T20:12:23;9.50;99.90
7000;DHT22;3540;53.242;10.408;2022-09-21T20:15:00;9.60;99.90
7000;DHT22;3540;53.242;10.408;2022-09-21T20:17:38;9.60;99.90
7000;DHT22;3540;53.242;10.408;2022-09-21T20:20:14;9.60;99.90
7000;DHT22;3540;53.242;10.408;2022-09-21T20:22:42;9.60;99.90